Northlake, Georgia
Current Conditions -  °F | °C
As of 12:53 PM on Monday 22 Dec 2014 (Local Time) from KPDK Reporting Station
Haze Haze  
Wind Chill: 40°   Ceiling: 400
Heat Index: 44°   Visibility: 1.7mi
Dew Point: 43°   Wind: 7mph
Humidity: 96%   Direction: NA
Pressure: 29.96"   Gusts: NA
Location:  33.8504°N, 84.2813°W
Report Text: KPDK 221753Z VRB06KT 1 3/4SM BR OVC004 07/06 A2996 RMK AO2 SLP154 T00670061 10067 20061 58022
Loading
Personal Weather Stations






























Interactive Weather Map New forecast layout! Learn more

10-Day Weather Forecast

Advertisements
Track Severe Weather on mobile